sensor_id;sensor_type;location;lat;lon;timestamp;temperature;humidity
20845;DHT22;10583;49.084;8.646;2023-07-13T00:00:45;18.70;99.90
20845;DHT22;10583;49.084;8.646;2023-07-13T00:03:12;18.50;99.90
20845;DHT22;10583;49.084;8.646;2023-07-13T00:05:39;18.30;99.90
20845;DHT22;10583;49.084;8.646;2023-07-13T00:08:07;18.20;99.90
20845;DHT22;10583;49.084;8.646;2023-07-13T00:10:38;18.20;99.90
20845;DHT22;10583;49.084;8.646;2023-07-13T00:13:05;18.20;99.90
20845;DHT22;10583;49.084;8.646;2023-07-13T00:15:32;18.10;99.90
20845;DHT22;10583;49.084;8.646;2023-07-13T00:18:00;18.20;99.90
20845;DHT22;10583;49.084;8.646;2023-07-13T00:20:27;18.30;99.90
20845;DHT22;10583;49.084;8.646;2023-07-13T00:22:54;18.30;99.90
20845;DHT22;10583;49.084;8.646;2023-07-13T00:25:21;18.30;99.90
20845;DHT22;10583;49.084;8.646;2023-07-13T00:27:50;18.20;99.90
20845;DHT22;10583;49.084;8.646;2023-07-13T00:30:18;18.10;99.90
20845;DHT22;10583;49.084;8.646;2023-07-13T00:32:45;18.00;99.90
20845;DHT22;10583;49.084;8.646;2023-07-13T00:35:15;18.00;99.90
20845;DHT22;10583;49.084;8.646;2023-07-13T00:37:43;18.00;99.90
20845;DHT22;10583;49.084;8.646;2023-07-13T00:40:11;17.90;99.90
20845;DHT22;10583;49.084;8.646;2023-07-13T00:42:38;17.90;99.90
20845;DHT22;10583;49.084;8.646;2023-07-13T00:47:50;17.80;99.90
20845;DHT22;10583;49.084;8.646;2023-07-13T00:50:20;17.80;99.90
20845;DHT22;10583;49.084;8.646;2023-07-13T00:52:50;17.70;99.90
20845;DHT22;10583;49.084;8.646;2023-07-13T00:55:20;17.70;99.90
20845;DHT22;10583;49.084;8.646;2023-07-13T00:57:47;17.70;99.90
20845;DHT22;10583;49.084;8.646;2023-07-13T01:00:15;17.60;99.90
20845;DHT22;10583;49.084;8.646;2023-07-13T01:02:45;17.40;99.90
20845;DHT22;10583;49.084;8.646;2023-07-13T01:05:14;17.40;99.90
20845;DHT22;10583;49.084;8.646;2023-07-13T01:07:44;17.30;99.90
20845;DHT22;10583;49.084;8.646;2023-07-13T01:10:13;17.20;99.90
20845;DHT22;10583;49.084;8.646;2023-07-13T01:12:40;17.20;99.90
20845;DHT22;10583;49.084;8.646;2023-07-13T01:18:15;17.10;99.90
20845;DHT22;10583;49.084;8.646;2023-07-13T01:20:51;17.10;99.90
20845;DHT22;10583;49.084;8.646;2023-07-13T01:23:19;17.10;99.90
20845;DHT22;10583;49.084;8.646;2023-07-13T01:25:46;17.00;99.90
20845;DHT22;10583;49.084;8.646;2023-07-13T01:28:13;17.00;99.90
20845;DHT22;10583;49.084;8.646;2023-07-13T01:30:43;17.00;99.90
20845;DHT22;10583;49.084;8.646;2023-07-13T01:33:11;16.90;99.90
20845;DHT22;10583;49.084;8.646;2023-07-13T01:35:38;16.80;99.90
20845;DHT22;10583;49.084;8.646;2023-07-13T01:38:07;16.70;99.90
20845;DHT22;10583;49.084;8.646;2023-07-13T01:40:34;16.70;99.90
20845;DHT22;10583;49.084;8.646;2023-07-13T01:43:01;16.70;99.90
20845;DHT22;10583;49.084;8.646;2023-07-13T01:45:28;16.70;99.90
20845;DHT22;10583;49.084;8.646;2023-07-13T01:47:55;16.60;99.90
20845;DHT22;10583;49.084;8.646;2023-07-13T01:50:23;16.70;99.90
20845;DHT22;10583;49.084;8.646;2023-07-13T01:52:50;16.70;99.90
20845;DHT22;10583;49.084;8.646;2023-07-13T01:55:19;16.60;99.90
20845;DHT22;10583;49.084;8.646;2023-07-13T01:57:46;16.50;99.90
20845;DHT22;10583;49.084;8.646;2023-07-13T02:00:14;16.50;99.90
20845;DHT22;10583;49.084;8.646;2023-07-13T02:02:41;16.40;99.90
20845;DHT22;10583;49.084;8.646;2023-07-13T02:05:08;16.30;99.90
20845;DHT22;10583;49.084;8.646;2023-07-13T02:07:35;16.00;99.90
20845;DHT22;10583;49.084;8.646;2023-07-13T02:10:03;15.90;99.90
20845;DHT22;10583;49.084;8.646;2023-07-13T02:12:31;16.00;99.90
20845;DHT22;10583;49.084;8.646;2023-07-13T02:14:58;15.90;99.90
20845;DHT22;10583;49.084;8.646;2023-07-13T02:17:26;15.90;99.90
20845;DHT22;10583;49.084;8.646;2023-07-13T02:19:53;15.90;99.90
20845;DHT22;10583;49.084;8.646;2023-07-13T02:22:21;15.80;99.90
20845;DHT22;10583;49.084;8.646;2023-07-13T02:24:48;15.80;99.90
20845;DHT22;10583;49.084;8.646;2023-07-13T02:27:16;15.80;99.90
20845;DHT22;10583;49.084;8.646;2023-07-13T02:29:44;15.70;99.90
20845;DHT22;10583;49.084;8.646;2023-07-13T02:32:11;15.70;99.90
20845;DHT22;10583;49.084;8.646;2023-07-13T02:34:40;15.60;99.90
20845;DHT22;10583;49.084;8.646;2023-07-13T02:37:07;15.60;99.90
20845;DHT22;10583;49.084;8.646;2023-07-13T02:39:34;15.60;99.90
20845;DHT22;10583;49.084;8.646;2023-07-13T02:42:01;15.50;99.90
20845;DHT22;10583;49.084;8.646;2023-07-13T02:44:28;15.50;99.90
20845;DHT22;10583;49.084;8.646;2023-07-13T02:46:57;15.40;99.90
20845;DHT22;10583;49.084;8.646;2023-07-13T02:49:24;15.40;99.90
20845;DHT22;10583;49.084;8.646;2023-07-13T02:51:51;15.40;99.90
20845;DHT22;10583;49.084;8.646;2023-07-13T02:54:18;15.40;99.90
20845;DHT22;10583;49.084;8.646;2023-07-13T02:56:45;15.30;99.90
20845;DHT22;10583;49.084;8.646;2023-07-13T02:59:11;15.30;99.90
20845;DHT22;10583;49.084;8.646;2023-07-13T03:01:38;15.20;99.90
20845;DHT22;10583;49.084;8.646;2023-07-13T03:04:08;15.00;99.90
20845;DHT22;10583;49.084;8.646;2023-07-13T03:06:35;14.90;99.90
20845;DHT22;10583;49.084;8.646;2023-07-13T03:09:01;14.90;99.90
20845;DHT22;10583;49.084;8.646;2023-07-13T03:11:30;14.90;99.90
20845;DHT22;10583;49.084;8.646;2023-07-13T03:13:57;14.90;99.90
20845;DHT22;10583;49.084;8.646;2023-07-13T03:16:24;14.90;99.90
20845;DHT22;10583;49.084;8.646;2023-07-13T03:18:51;14.80;99.90
20845;DHT22;10583;49.084;8.646;2023-07-13T03:21:19;14.80;99.90
20845;DHT22;10583;49.084;8.646;2023-07-13T03:23:47;14.80;99.90
20845;DHT22;10583;49.084;8.646;2023-07-13T03:26:16;14.80;99.90
20845;DHT22;10583;49.084;8.646;2023-07-13T03:28:44;14.80;99.90
20845;DHT22;10583;49.084;8.646;2023-07-13T03:31:13;14.80;99.90
20845;DHT22;10583;49.084;8.646;2023-07-13T03:33:40;14.80;99.90
20845;DHT22;10583;49.084;8.646;2023-07-13T03:36:09;14.80;99.90
20845;DHT22;10583;49.084;8.646;2023-07-13T03:38:37;14.70;99.90
20845;DHT22;10583;49.084;8.646;2023-07-13T03:41:04;14.50;99.90
20845;DHT22;10583;49.084;8.646;2023-07-13T03:43:31;14.40;99.90
20845;DHT22;10583;49.084;8.646;2023-07-13T03:45:58;14.50;99.90
20845;DHT22;10583;49.084;8.646;2023-07-13T03:48:25;14.50;99.90
20845;DHT22;10583;49.084;8.646;2023-07-13T03:50:52;14.50;99.90
20845;DHT22;10583;49.084;8.646;2023-07-13T03:53:19;14.50;99.90
20845;DHT22;10583;49.084;8.646;2023-07-13T03:55:47;14.50;99.90
20845;DHT22;10583;49.084;8.646;2023-07-13T03:58:32;14.60;99.90
20845;DHT22;10583;49.084;8.646;2023-07-13T04:00:59;14.60;99.90
20845;DHT22;10583;49.084;8.646;2023-07-13T04:03:28;14.70;99.90
20845;DHT22;10583;49.084;8.646;2023-07-13T04:05:55;14.80;99.90
20845;DHT22;10583;49.084;8.646;2023-07-13T04:08:26;14.90;99.90
20845;DHT22;10583;49.084;8.646;2023-07-13T04:10:54;14.90;99.90
20845;DHT22;10583;49.084;8.646;2023-07-13T04:13:22;15.00;99.90
20845;DHT22;10583;49.084;8.646;2023-07-13T04:15:49;15.00;99.90
20845;DHT22;10583;49.084;8.646;2023-07-13T04:18:16;14.90;99.90
20845;DHT22;10583;49.084;8.646;2023-07-13T04:20:43;14.90;99.90
20845;DHT22;10583;49.084;8.646;2023-07-13T04:23:10;15.00;99.90
20845;DHT22;10583;49.084;8.646;2023-07-13T04:25:37;15.10;99.90
20845;DHT22;10583;49.084;8.646;2023-07-13T04:28:05;15.20;99.90
20845;DHT22;10583;49.084;8.646;2023-07-13T04:30:32;15.20;99.90
20845;DHT22;10583;49.084;8.646;2023-07-13T04:32:59;15.30;99.90
20845;DHT22;10583;49.084;8.646;2023-07-13T04:35:26;15.40;99.90
20845;DHT22;10583;49.084;8.646;2023-07-13T04:37:52;15.40;99.90
20845;DHT22;10583;49.084;8.646;2023-07-13T04:40:20;15.50;99.90
20845;DHT22;10583;49.084;8.646;2023-07-13T04:42:47;15.50;99.90
20845;DHT22;10583;49.084;8.646;2023-07-13T04:45:15;15.60;99.90
20845;DHT22;10583;49.084;8.646;2023-07-13T04:47:42;15.70;99.90
20845;DHT22;10583;49.084;8.646;2023-07-13T04:50:10;15.70;99.90
20845;DHT22;10583;49.084;8.646;2023-07-13T04:52:37;15.80;99.90
20845;DHT22;10583;49.084;8.646;2023-07-13T04:55:04;15.90;99.90
20845;DHT22;10583;49.084;8.646;2023-07-13T04:57:32;15.90;99.90
20845;DHT22;10583;49.084;8.646;2023-07-13T04:59:59;16.00;99.90
20845;DHT22;10583;49.084;8.646;2023-07-13T05:02:27;16.20;99.90
20845;DHT22;10583;49.084;8.646;2023-07-13T05:04:56;16.40;99.90
20845;DHT22;10583;49.084;8.646;2023-07-13T05:07:23;16.50;99.90
20845;DHT22;10583;49.084;8.646;2023-07-13T05:09:49;16.70;99.90
20845;DHT22;10583;49.084;8.646;2023-07-13T05:12:16;16.90;99.90
20845;DHT22;10583;49.084;8.646;2023-07-13T05:14:43;17.00;99.90
20845;DHT22;10583;49.084;8.646;2023-07-13T05:17:10;17.10;99.90
20845;DHT22;10583;49.084;8.646;2023-07-13T05:19:38;17.10;99.90
20845;DHT22;10583;49.084;8.646;2023-07-13T05:22:05;17.20;99.90
20845;DHT22;10583;49.084;8.646;2023-07-13T05:24:32;17.20;99.90
20845;DHT22;10583;49.084;8.646;2023-07-13T05:26:59;17.10;99.90
20845;DHT22;10583;49.084;8.646;2023-07-13T05:29:26;17.20;99.90
20845;DHT22;10583;49.084;8.646;2023-07-13T05:31:52;17.30;99.90
20845;DHT22;10583;49.084;8.646;2023-07-13T05:34:19;17.30;99.90
20845;DHT22;10583;49.084;8.646;2023-07-13T05:36:48;17.40;99.90
20845;DHT22;10583;49.084;8.646;2023-07-13T05:39:15;17.40;99.90
20845;DHT22;10583;49.084;8.646;2023-07-13T05:41:42;17.60;99.90
20845;DHT22;10583;49.084;8.646;2023-07-13T05:44:09;17.70;99.90
20845;DHT22;10583;49.084;8.646;2023-07-13T05:46:35;17.80;99.90
20845;DHT22;10583;49.084;8.646;2023-07-13T05:49:02;18.00;99.90
20845;DHT22;10583;49.084;8.646;2023-07-13T05:51:29;18.20;99.90
20845;DHT22;10583;49.084;8.646;2023-07-13T05:53:57;18.40;99.90
20845;DHT22;10583;49.084;8.646;2023-07-13T05:56:24;18.60;99.90
20845;DHT22;10583;49.084;8.646;2023-07-13T05:58:51;18.70;99.90
20845;DHT22;10583;49.084;8.646;2023-07-13T06:01:18;18.80;99.90
20845;DHT22;10583;49.084;8.646;2023-07-13T06:03:46;18.80;99.90
20845;DHT22;10583;49.084;8.646;2023-07-13T06:06:13;18.80;99.90
20845;DHT22;10583;49.084;8.646;2023-07-13T06:08:40;18.90;99.90
20845;DHT22;10583;49.084;8.646;2023-07-13T06:11:12;19.10;99.90
20845;DHT22;10583;49.084;8.646;2023-07-13T06:13:40;19.50;99.90
20845;DHT22;10583;49.084;8.646;2023-07-13T06:16:07;19.90;99.90
20845;DHT22;10583;49.084;8.646;2023-07-13T06:18:35;20.30;99.90
20845;DHT22;10583;49.084;8.646;2023-07-13T06:21:06;20.80;99.90
20845;DHT22;10583;49.084;8.646;2023-07-13T06:23:33;21.20;99.90
20845;DHT22;10583;49.084;8.646;2023-07-13T06:25:59;21.50;99.90
20845;DHT22;10583;49.084;8.646;2023-07-13T06:28:28;21.70;99.90
20845;DHT22;10583;49.084;8.646;2023-07-13T06:30:54;22.00;99.90
20845;DHT22;10583;49.084;8.646;2023-07-13T06:33:21;22.20;99.90
20845;DHT22;10583;49.084;8.646;2023-07-13T06:35:48;22.50;99.90
20845;DHT22;10583;49.084;8.646;2023-07-13T06:38:14;22.70;99.90
20845;DHT22;10583;49.084;8.646;2023-07-13T06:40:41;22.70;99.90
20845;DHT22;10583;49.084;8.646;2023-07-13T06:43:08;22.70;99.90
20845;DHT22;10583;49.084;8.646;2023-07-13T06:45:41;22.50;99.90
20845;DHT22;10583;49.084;8.646;2023-07-13T06:48:08;22.40;99.90
20845;DHT22;10583;49.084;8.646;2023-07-13T06:50:34;22.50;99.90
20845;DHT22;10583;49.084;8.646;2023-07-13T06:53:01;22.70;99.90
20845;DHT22;10583;49.084;8.646;2023-07-13T06:55:28;22.90;99.90
20845;DHT22;10583;49.084;8.646;2023-07-13T06:57:54;23.20;99.90
20845;DHT22;10583;49.084;8.646;2023-07-13T07:00:21;23.30;99.90
20845;DHT22;10583;49.084;8.646;2023-07-13T07:02:49;23.50;99.90
20845;DHT22;10583;49.084;8.646;2023-07-13T07:05:16;23.60;99.90
20845;DHT22;10583;49.084;8.646;2023-07-13T07:07:43;23.60;99.90
20845;DHT22;10583;49.084;8.646;2023-07-13T07:10:10;23.60;99.90
20845;DHT22;10583;49.084;8.646;2023-07-13T07:12:36;23.70;99.90
20845;DHT22;10583;49.084;8.646;2023-07-13T07:15:04;24.00;99.90
20845;DHT22;10583;49.084;8.646;2023-07-13T07:17:30;24.30;99.90
20845;DHT22;10583;49.084;8.646;2023-07-13T07:19:58;24.50;99.90
20845;DHT22;10583;49.084;8.646;2023-07-13T07:22:25;24.70;99.90
20845;DHT22;10583;49.084;8.646;2023-07-13T07:24:53;25.00;98.50
20845;DHT22;10583;49.084;8.646;2023-07-13T07:27:20;25.20;98.50
20845;DHT22;10583;49.084;8.646;2023-07-13T07:29:46;25.50;97.30
20845;DHT22;10583;49.084;8.646;2023-07-13T07:32:13;25.60;98.10
20845;DHT22;10583;49.084;8.646;2023-07-13T07:34:40;25.80;97.90
20845;DHT22;10583;49.084;8.646;2023-07-13T07:37:11;25.90;98.00
20845;DHT22;10583;49.084;8.646;2023-07-13T07:39:38;26.00;97.60
20845;DHT22;10583;49.084;8.646;2023-07-13T07:42:05;26.00;98.10
20845;DHT22;10583;49.084;8.646;2023-07-13T07:44:33;25.90;98.30
20845;DHT22;10583;49.084;8.646;2023-07-13T07:47:00;25.80;98.00
20845;DHT22;10583;49.084;8.646;2023-07-13T07:49:27;25.70;98.10
20845;DHT22;10583;49.084;8.646;2023-07-13T07:51:53;25.70;98.10
20845;DHT22;10583;49.084;8.646;2023-07-13T07:54:21;25.60;97.70
20845;DHT22;10583;49.084;8.646;2023-07-13T07:56:48;25.60;97.90
20845;DHT22;10583;49.084;8.646;2023-07-13T07:59:15;25.80;97.60
20845;DHT22;10583;49.084;8.646;2023-07-13T08:01:42;26.10;96.40
20845;DHT22;10583;49.084;8.646;2023-07-13T08:04:10;26.50;96.30
20845;DHT22;10583;49.084;8.646;2023-07-13T08:06:37;26.40;96.60
20845;DHT22;10583;49.084;8.646;2023-07-13T08:09:04;26.20;95.80
20845;DHT22;10583;49.084;8.646;2023-07-13T08:11:32;26.10;96.10
20845;DHT22;10583;49.084;8.646;2023-07-13T08:13:59;26.60;95.50
20845;DHT22;10583;49.084;8.646;2023-07-13T08:16:26;27.10;94.40
20845;DHT22;10583;49.084;8.646;2023-07-13T08:18:53;27.10;94.10
20845;DHT22;10583;49.084;8.646;2023-07-13T08:21:20;27.30;94.00
20845;DHT22;10583;49.084;8.646;2023-07-13T08:23:47;27.10;93.20
20845;DHT22;10583;49.084;8.646;2023-07-13T08:26:14;27.00;93.00
20845;DHT22;10583;49.084;8.646;2023-07-13T08:28:42;27.30;93.10
20845;DHT22;10583;49.084;8.646;2023-07-13T08:31:09;27.70;92.90
20845;DHT22;10583;49.084;8.646;2023-07-13T08:33:37;27.70;93.30
20845;DHT22;10583;49.084;8.646;2023-07-13T08:36:04;27.90;93.70
20845;DHT22;10583;49.084;8.646;2023-07-13T08:38:31;27.70;93.30
20845;DHT22;10583;49.084;8.646;2023-07-13T08:40:58;27.70;93.30
20845;DHT22;10583;49.084;8.646;2023-07-13T08:43:27;27.90;93.20
20845;DHT22;10583;49.084;8.646;2023-07-13T08:45:59;27.70;92.30
20845;DHT22;10583;49.084;8.646;2023-07-13T08:48:29;27.30;93.20
20845;DHT22;10583;49.084;8.646;2023-07-13T08:51:02;27.60;92.50
20845;DHT22;10583;49.084;8.646;2023-07-13T08:53:35;27.60;92.60
20845;DHT22;10583;49.084;8.646;2023-07-13T08:56:07;27.30;92.20
20845;DHT22;10583;49.084;8.646;2023-07-13T08:58:36;27.40;92.80
20845;DHT22;10583;49.084;8.646;2023-07-13T09:01:14;27.50;92.20
20845;DHT22;10583;49.084;8.646;2023-07-13T09:04:02;27.90;91.30
20845;DHT22;10583;49.084;8.646;2023-07-13T09:06:39;28.30;91.50
20845;DHT22;10583;49.084;8.646;2023-07-13T09:09:12;28.80;91.30
20845;DHT22;10583;49.084;8.646;2023-07-13T09:11:47;28.90;91.80
20845;DHT22;10583;49.084;8.646;2023-07-13T09:14:32;28.70;90.90
20845;DHT22;10583;49.084;8.646;2023-07-13T09:17:03;28.60;91.30
20845;DHT22;10583;49.084;8.646;2023-07-13T09:19:32;28.80;91.80
20845;DHT22;10583;49.084;8.646;2023-07-13T09:22:02;29.00;90.50
20845;DHT22;10583;49.084;8.646;2023-07-13T09:24:36;29.20;90.80
20845;DHT22;10583;49.084;8.646;2023-07-13T09:27:10;28.90;90.70
20845;DHT22;10583;49.084;8.646;2023-07-13T09:29:41;28.70;91.20
20845;DHT22;10583;49.084;8.646;2023-07-13T09:32:15;29.00;91.70
20845;DHT22;10583;49.084;8.646;2023-07-13T09:34:50;29.10;90.40
20845;DHT22;10583;49.084;8.646;2023-07-13T09:37:19;28.80;90.80
20845;DHT22;10583;49.084;8.646;2023-07-13T09:39:49;28.40;89.40
20845;DHT22;10583;49.084;8.646;2023-07-13T09:42:17;28.10;90.70
20845;DHT22;10583;49.084;8.646;2023-07-13T09:44:52;28.10;90.60
20845;DHT22;10583;49.084;8.646;2023-07-13T09:47:23;28.10;90.00
20845;DHT22;10583;49.084;8.646;2023-07-13T09:49:55;28.10;90.90
20845;DHT22;10583;49.084;8.646;2023-07-13T09:52:24;28.10;90.10
20845;DHT22;10583;49.084;8.646;2023-07-13T09:54:52;28.30;89.80
20845;DHT22;10583;49.084;8.646;2023-07-13T09:57:24;28.50;89.20
20845;DHT22;10583;49.084;8.646;2023-07-13T09:59:53;28.40;88.70
20845;DHT22;10583;49.084;8.646;2023-07-13T10:02:28;28.10;87.30
20845;DHT22;10583;49.084;8.646;2023-07-13T10:04:56;28.20;86.60
20845;DHT22;10583;49.084;8.646;2023-07-13T10:07:24;28.50;88.00
20845;DHT22;10583;49.084;8.646;2023-07-13T10:09:52;28.70;87.60
20845;DHT22;10583;49.084;8.646;2023-07-13T10:12:19;28.90;86.70
20845;DHT22;10583;49.084;8.646;2023-07-13T10:14:50;28.70;87.80
20845;DHT22;10583;49.084;8.646;2023-07-13T10:17:20;28.40;86.40
20845;DHT22;10583;49.084;8.646;2023-07-13T10:19:53;28.00;87.80
20845;DHT22;10583;49.084;8.646;2023-07-13T10:22:25;28.30;86.10
20845;DHT22;10583;49.084;8.646;2023-07-13T10:24:54;28.70;86.20
20845;DHT22;10583;49.084;8.646;2023-07-13T10:27:28;29.10;87.30
20845;DHT22;10583;49.084;8.646;2023-07-13T10:30:02;28.90;83.80
20845;DHT22;10583;49.084;8.646;2023-07-13T10:32:31;28.80;85.60
20845;DHT22;10583;49.084;8.646;2023-07-13T10:34:59;28.90;84.60
20845;DHT22;10583;49.084;8.646;2023-07-13T10:37:40;28.80;84.50
20845;DHT22;10583;49.084;8.646;2023-07-13T10:40:13;28.80;85.60
20845;DHT22;10583;49.084;8.646;2023-07-13T10:42:43;29.30;84.50
20845;DHT22;10583;49.084;8.646;2023-07-13T10:45:15;29.60;83.70
20845;DHT22;10583;49.084;8.646;2023-07-13T10:47:42;29.70;81.80
20845;DHT22;10583;49.084;8.646;2023-07-13T10:50:17;29.30;82.80
20845;DHT22;10583;49.084;8.646;2023-07-13T10:52:46;29.10;82.10
20845;DHT22;10583;49.084;8.646;2023-07-13T10:55:37;29.50;82.60
20845;DHT22;10583;49.084;8.646;2023-07-13T10:58:13;29.40;82.70
20845;DHT22;10583;49.084;8.646;2023-07-13T11:00:46;29.50;82.00
20845;DHT22;10583;49.084;8.646;2023-07-13T11:03:16;29.70;81.60
20845;DHT22;10583;49.084;8.646;2023-07-13T11:05:48;30.00;82.20
20845;DHT22;10583;49.084;8.646;2023-07-13T11:08:20;30.00;81.60
20845;DHT22;10583;49.084;8.646;2023-07-13T11:10:53;30.20;80.50
20845;DHT22;10583;49.084;8.646;2023-07-13T11:16:35;30.60;81.40
20845;DHT22;10583;49.084;8.646;2023-07-13T11:19:27;31.20;82.80
20845;DHT22;10583;49.084;8.646;2023-07-13T11:22:14;30.90;80.30
20845;DHT22;10583;49.084;8.646;2023-07-13T11:25:06;30.70;79.70
20845;DHT22;10583;49.084;8.646;2023-07-13T11:27:50;31.30;80.30
20845;DHT22;10583;49.084;8.646;2023-07-13T11:30:36;31.50;80.10
20845;DHT22;10583;49.084;8.646;2023-07-13T11:33:17;31.70;80.50
20845;DHT22;10583;49.084;8.646;2023-07-13T11:35:57;31.30;79.30
20845;DHT22;10583;49.084;8.646;2023-07-13T11:38:33;30.50;80.30
20845;DHT22;10583;49.084;8.646;2023-07-13T11:41:04;29.50;80.60
20845;DHT22;10583;49.084;8.646;2023-07-13T11:43:33;29.10;81.20
20845;DHT22;10583;49.084;8.646;2023-07-13T11:46:13;28.40;81.70
20845;DHT22;10583;49.084;8.646;2023-07-13T11:48:40;28.10;83.00
20845;DHT22;10583;49.084;8.646;2023-07-13T11:51:15;28.50;84.50
20845;DHT22;10583;49.084;8.646;2023-07-13T11:53:48;29.60;84.10
20845;DHT22;10583;49.084;8.646;2023-07-13T11:56:15;30.60;83.80
20845;DHT22;10583;49.084;8.646;2023-07-13T11:58:42;31.10;81.70
20845;DHT22;10583;49.084;8.646;2023-07-13T12:01:16;31.10;80.30
20845;DHT22;10583;49.084;8.646;2023-07-13T12:03:45;30.90;80.70
20845;DHT22;10583;49.084;8.646;2023-07-13T12:06:25;30.60;81.50
20845;DHT22;10583;49.084;8.646;2023-07-13T12:08:56;30.50;80.10
20845;DHT22;10583;49.084;8.646;2023-07-13T12:11:23;30.40;81.70
20845;DHT22;10583;49.084;8.646;2023-07-13T12:13:50;30.30;80.80
20845;DHT22;10583;49.084;8.646;2023-07-13T12:16:25;30.60;80.20
20845;DHT22;10583;49.084;8.646;2023-07-13T12:18:52;31.00;81.90
20845;DHT22;10583;49.084;8.646;2023-07-13T12:21:24;31.10;80.50
20845;DHT22;10583;49.084;8.646;2023-07-13T12:23:54;31.00;80.10
20845;DHT22;10583;49.084;8.646;2023-07-13T12:26:21;31.10;79.60
20845;DHT22;10583;49.084;8.646;2023-07-13T12:28:49;31.00;79.10
20845;DHT22;10583;49.084;8.646;2023-07-13T12:31:30;30.70;80.30
20845;DHT22;10583;49.084;8.646;2023-07-13T12:33:59;30.90;79.80
20845;DHT22;10583;49.084;8.646;2023-07-13T12:36:30;30.60;79.10
20845;DHT22;10583;49.084;8.646;2023-07-13T12:39:03;30.40;80.10
20845;DHT22;10583;49.084;8.646;2023-07-13T12:41:31;29.60;80.00
20845;DHT22;10583;49.084;8.646;2023-07-13T12:43:59;28.90;81.30
20845;DHT22;10583;49.084;8.646;2023-07-13T12:46:26;28.30;82.30
20845;DHT22;10583;49.084;8.646;2023-07-13T12:48:54;28.20;82.60
20845;DHT22;10583;49.084;8.646;2023-07-13T12:51:23;28.00;82.80
20845;DHT22;10583;49.084;8.646;2023-07-13T12:53:57;27.90;83.40
20845;DHT22;10583;49.084;8.646;2023-07-13T12:56:27;27.80;83.00
20845;DHT22;10583;49.084;8.646;2023-07-13T12:58:58;28.00;83.90
20845;DHT22;10583;49.084;8.646;2023-07-13T13:01:27;28.70;82.80
20845;DHT22;10583;49.084;8.646;2023-07-13T13:03:54;29.60;81.70
20845;DHT22;10583;49.084;8.646;2023-07-13T13:06:24;29.70;81.80
20845;DHT22;10583;49.084;8.646;2023-07-13T13:08:53;29.60;80.30
20845;DHT22;10583;49.084;8.646;2023-07-13T13:11:22;29.10;81.20
20845;DHT22;10583;49.084;8.646;2023-07-13T13:13:51;28.80;81.90
20845;DHT22;10583;49.084;8.646;2023-07-13T13:16:21;28.60;81.60
20845;DHT22;10583;49.084;8.646;2023-07-13T13:18:49;28.30;80.30
20845;DHT22;10583;49.084;8.646;2023-07-13T13:21:17;27.90;81.20
20845;DHT22;10583;49.084;8.646;2023-07-13T13:23:44;27.90;82.10
20845;DHT22;10583;49.084;8.646;2023-07-13T13:26:12;28.20;82.20
20845;DHT22;10583;49.084;8.646;2023-07-13T13:28:41;28.20;81.10
20845;DHT22;10583;49.084;8.646;2023-07-13T13:31:11;28.20;79.40
20845;DHT22;10583;49.084;8.646;2023-07-13T13:33:39;28.20;79.10
20845;DHT22;10583;49.084;8.646;2023-07-13T13:36:14;28.10;78.20
20845;DHT22;10583;49.084;8.646;2023-07-13T13:38:42;28.30;78.80
20845;DHT22;10583;49.084;8.646;2023-07-13T13:41:10;29.00;79.40
20845;DHT22;10583;49.084;8.646;2023-07-13T13:43:39;29.70;76.30
20845;DHT22;10583;49.084;8.646;2023-07-13T13:46:15;29.90;76.60
20845;DHT22;10583;49.084;8.646;2023-07-13T13:48:43;29.70;77.60
20845;DHT22;10583;49.084;8.646;2023-07-13T13:51:19;29.50;76.00
20845;DHT22;10583;49.084;8.646;2023-07-13T13:53:47;29.20;77.50
20845;DHT22;10583;49.084;8.646;2023-07-13T13:56:18;29.40;75.60
20845;DHT22;10583;49.084;8.646;2023-07-13T13:58:45;28.70;77.10
20845;DHT22;10583;49.084;8.646;2023-07-13T14:01:13;28.40;78.30
20845;DHT22;10583;49.084;8.646;2023-07-13T14:03:43;28.70;78.50
20845;DHT22;10583;49.084;8.646;2023-07-13T14:06:11;28.90;76.00
20845;DHT22;10583;49.084;8.646;2023-07-13T14:08:39;28.90;77.90
20845;DHT22;10583;49.084;8.646;2023-07-13T14:11:07;28.60;78.00
20845;DHT22;10583;49.084;8.646;2023-07-13T14:13:40;28.50;78.40
20845;DHT22;10583;49.084;8.646;2023-07-13T14:16:11;28.80;78.70
20845;DHT22;10583;49.084;8.646;2023-07-13T14:18:38;29.00;76.10
20845;DHT22;10583;49.084;8.646;2023-07-13T14:21:11;29.10;78.00
20845;DHT22;10583;49.084;8.646;2023-07-13T14:23:39;29.10;77.40
20845;DHT22;10583;49.084;8.646;2023-07-13T14:26:10;29.00;76.80
20845;DHT22;10583;49.084;8.646;2023-07-13T14:28:42;29.00;76.50
20845;DHT22;10583;49.084;8.646;2023-07-13T14:31:09;28.70;77.60
20845;DHT22;10583;49.084;8.646;2023-07-13T14:33:36;28.70;77.50
20845;DHT22;10583;49.084;8.646;2023-07-13T14:36:04;28.60;76.10
20845;DHT22;10583;49.084;8.646;2023-07-13T14:38:44;28.70;77.00
20845;DHT22;10583;49.084;8.646;2023-07-13T14:41:11;28.60;77.10
20845;DHT22;10583;49.084;8.646;2023-07-13T14:43:37;28.60;77.60
20845;DHT22;10583;49.084;8.646;2023-07-13T14:46:04;28.40;77.20
20845;DHT22;10583;49.084;8.646;2023-07-13T14:48:31;27.90;76.90
20845;DHT22;10583;49.084;8.646;2023-07-13T14:50:59;27.50;77.40
20845;DHT22;10583;49.084;8.646;2023-07-13T14:53:26;27.30;79.80
20845;DHT22;10583;49.084;8.646;2023-07-13T14:55:55;27.50;79.40
20845;DHT22;10583;49.084;8.646;2023-07-13T14:58:23;27.50;79.40
20845;DHT22;10583;49.084;8.646;2023-07-13T15:00:50;27.30;80.90
20845;DHT22;10583;49.084;8.646;2023-07-13T15:03:23;27.40;81.00
20845;DHT22;10583;49.084;8.646;2023-07-13T15:05:51;27.60;80.40
20845;DHT22;10583;49.084;8.646;2023-07-13T15:08:19;27.80;79.20
20845;DHT22;10583;49.084;8.646;2023-07-13T15:10:45;27.70;78.90
20845;DHT22;10583;49.084;8.646;2023-07-13T15:13:16;27.40;79.20
20845;DHT22;10583;49.084;8.646;2023-07-13T15:15:45;27.10;79.50
20845;DHT22;10583;49.084;8.646;2023-07-13T15:18:14;27.00;80.30
20845;DHT22;10583;49.084;8.646;2023-07-13T15:20:43;27.00;80.10
20845;DHT22;10583;49.084;8.646;2023-07-13T15:23:10;26.90;79.00
20845;DHT22;10583;49.084;8.646;2023-07-13T15:25:37;26.80;79.80
20845;DHT22;10583;49.084;8.646;2023-07-13T15:28:04;26.70;80.40
20845;DHT22;10583;49.084;8.646;2023-07-13T15:30:36;26.70;80.10
20845;DHT22;10583;49.084;8.646;2023-07-13T15:33:11;26.80;80.00
20845;DHT22;10583;49.084;8.646;2023-07-13T15:35:39;26.70;79.80
20845;DHT22;10583;49.084;8.646;2023-07-13T15:38:16;26.70;80.20
20845;DHT22;10583;49.084;8.646;2023-07-13T15:40:43;26.80;79.70
20845;DHT22;10583;49.084;8.646;2023-07-13T15:43:11;26.90;79.80
20845;DHT22;10583;49.084;8.646;2023-07-13T15:45:39;26.70;80.40
20845;DHT22;10583;49.084;8.646;2023-07-13T15:48:13;26.50;80.60
20845;DHT22;10583;49.084;8.646;2023-07-13T15:50:43;26.40;80.70